Time;durP1;ratioP1;P1;durP2;ratioP2;P2;SDS_P1;SDS_P2;PMS_P1;PMS_P2;Temp;Humidity;BMP_temperature;BMP_pressure;BME280_temperature;BME280_humidity;BME280_pressure;Samples;Min_cycle;Max_cycle;Signal;HPM_P1;HPM_P2
2022/06/14 00:01:33;;;;;;;10.17;4.53;;;16.10;72.70;;;;;;5002644;28;20046;-70
2022/06/14 00:03:59;;;;;;;9.88;4.43;;;16.10;71.90;;;;;;5001624;28;20026;-69
2022/06/14 00:06:27;;;;;;;8.90;4.23;;;16.10;72.00;;;;;;5002517;28;20027;-69
2022/06/14 00:08:53;;;;;;;7.57;4.05;;;16.00;72.00;;;;;;5002594;28;20345;-69
2022/06/14 00:11:22;;;;;;;8.10;4.80;;;16.00;72.30;;;;;;5001950;28;20023;-69
2022/06/14 00:13:48;;;;;;;8.70;4.55;;;16.00;72.10;;;;;;5002297;28;20038;-69
2022/06/14 00:16:14;;;;;;;11.15;5.32;;;15.90;70.80;;;;;;5002646;28;20026;-69
2022/06/14 00:18:40;;;;;;;8.47;4.87;;;15.80;70.50;;;;;;5002465;28;20034;-69
2022/06/14 00:21:06;;;;;;;11.00;5.60;;;15.70;71.10;;;;;;5002485;28;20030;-69
2022/06/14 00:23:32;;;;;;;11.98;5.13;;;15.50;71.50;;;;;;5002231;28;20018;-69
2022/06/14 00:25:58;;;;;;;6.45;4.85;;;15.30;71.90;;;;;;5002718;28;20284;-70
2022/06/14 00:28:26;;;;;;;9.57;4.93;;;15.30;74.60;;;;;;4984899;28;20222;-70
2022/06/14 00:30:58;;;;;;;9.57;4.72;;;15.30;74.60;;;;;;4985476;28;20034;-69
2022/06/14 00:33:24;;;;;;;7.88;4.97;;;15.40;75.20;;;;;;4984978;28;20045;-69
2022/06/14 00:35:58;;;;;;;9.37;5.20;;;15.40;75.50;;;;;;5002738;28;20022;-70
2022/06/14 00:38:24;;;;;;;7.65;4.70;;;15.50;75.30;;;;;;4984257;28;20333;-69
2022/06/14 00:40:54;;;;;;;12.00;5.47;;;15.50;75.20;;;;;;5002388;28;20038;-69
2022/06/14 00:43:20;;;;;;;9.52;5.18;;;15.50;73.90;;;;;;4984480;28;20023;-69
2022/06/14 00:45:48;;;;;;;10.43;5.07;;;15.50;73.70;;;;;;5002120;28;20026;-69
2022/06/14 00:48:29;;;;;;;7.80;5.00;;;15.50;73.70;;;;;;5002436;28;20027;-69
2022/06/14 00:51:18;;;;;;;11.15;5.18;;;15.50;74.10;;;;;;4985188;28;20026;-68
2022/06/14 00:53:56;;;;;;;8.75;5.10;;;15.50;74.90;;;;;;4984025;28;20190;-69
2022/06/14 00:56:26;;;;;;;8.00;5.05;;;15.50;74.40;;;;;;4986521;28;20026;-69
2022/06/14 00:59:17;;;;;;;11.25;5.55;;;15.40;74.20;;;;;;4964726;28;20029;-68
2022/06/14 01:01:43;;;;;;;5.90;4.65;;;15.40;75.60;;;;;;4942232;28;20051;-69
2022/06/14 01:04:21;;;;;;;10.63;5.47;;;15.40;75.90;;;;;;4965265;28;20022;-69
2022/06/14 01:07:16;;;;;;;8.40;5.03;;;15.40;75.90;;;;;;4965955;28;20232;-70
2022/06/14 01:09:49;;;;;;;9.25;5.72;;;15.30;76.00;;;;;;4982862;28;20027;-69
2022/06/14 01:12:23;;;;;;;8.63;5.40;;;15.40;76.70;;;;;;4975813;28;20109;-69
2022/06/14 01:15:06;;;;;;;11.80;6.50;;;15.30;76.10;;;;;;4988432;28;20026;-70
2022/06/14 01:17:35;;;;;;;12.73;5.82;;;15.30;76.50;;;;;;4989071;28;20026;-70
2022/06/14 01:20:01;;;;;;;8.85;5.57;;;15.20;77.10;;;;;;4984048;28;20025;-69
2022/06/14 01:22:29;;;;;;;12.60;6.03;;;15.20;77.50;;;;;;4987812;28;20069;-70
2022/06/14 01:24:55;;;;;;;6.90;5.55;;;15.20;77.20;;;;;;5005420;28;20034;-69
2022/06/14 01:27:22;;;;;;;8.77;6.30;;;15.20;78.00;;;;;;5005056;28;20026;-70
2022/06/14 01:29:56;;;;;;;10.13;5.63;;;15.20;77.80;;;;;;4972359;28;20040;-70
2022/06/14 01:32:22;;;;;;;8.55;5.18;;;15.20;78.30;;;;;;4972987;28;20085;-70
2022/06/14 01:34:53;;;;;;;8.47;5.90;;;15.20;78.00;;;;;;4971914;28;20045;-69
2022/06/14 01:37:20;;;;;;;8.95;6.00;;;15.30;77.80;;;;;;5022741;23;20408;-67
2022/06/14 01:39:46;;;;;;;10.43;6.13;;;15.20;78.30;;;;;;4947252;28;20026;-67
2022/06/14 01:42:29;;;;;;;13.37;6.77;;;15.20;78.40;;;;;;4993594;28;20272;-67
2022/06/14 01:45:23;;;;;;;10.55;6.28;;;15.20;77.80;;;;;;4981387;28;20262;-69
2022/06/14 01:48:21;;;;;;;9.15;6.25;;;15.20;78.40;;;;;;4993581;28;20062;-67
2022/06/14 01:54:15;;;;;;;9.25;5.85;;;15.10;78.50;;;;;;4973038;28;20034;-67
2022/06/14 01:57:09;;;;;;;11.50;5.88;;;15.00;79.10;;;;;;4955647;28;20050;-67
2022/06/14 02:00:05;;;;;;;12.13;6.25;;;14.90;79.00;;;;;;4954715;28;20026;-68
2022/06/14 02:04:37;;;;;;;9.25;6.10;;;14.90;79.50;;;;;;4985172;28;20026;-68
2022/06/14 02:05:52;;;;;;;11.30;5.93;;;14.80;79.70;;;;;;4958104;28;20077;-68
2022/06/14 02:08:22;;;;;;;11.00;6.68;;;14.70;79.30;;;;;;4968117;28;20098;-68
2022/06/14 02:11:11;;;;;;;9.77;6.57;;;14.70;79.90;;;;;;4952146;28;20034;-69
2022/06/14 02:13:46;;;;;;;9.70;6.80;;;14.70;80.10;;;;;;4951174;28;20094;-68
2022/06/14 02:16:51;;;;;;;11.05;6.47;;;14.60;80.50;;;;;;4952960;28;20321;-68
2022/06/14 02:19:33;;;;;;;13.70;6.55;;;14.50;80.30;;;;;;4956214;28;20042;-68
2022/06/14 02:22:10;;;;;;;11.57;6.50;;;14.50;80.80;;;;;;4953711;28;20337;-67
2022/06/14 02:24:51;;;;;;;12.05;6.90;;;14.50;81.70;;;;;;4951722;28;20027;-68
2022/06/14 02:27:33;;;;;;;11.43;6.50;;;14.50;81.90;;;;;;4967729;28;20069;-68
2022/06/14 02:30:28;;;;;;;9.43;6.32;;;14.50;81.80;;;;;;4952789;28;20236;-68
2022/06/14 02:33:18;;;;;;;13.82;6.55;;;14.50;82.30;;;;;;4966115;28;20360;-67
2022/06/14 02:36:12;;;;;;;13.70;7.28;;;14.50;82.40;;;;;;4952763;28;20300;-67
2022/06/14 02:38:59;;;;;;;13.43;6.68;;;14.50;82.60;;;;;;4983372;28;20054;-67
2022/06/14 02:41:31;;;;;;;13.02;7.63;;;14.50;82.40;;;;;;4952368;28;20022;-67
2022/06/14 02:44:10;;;;;;;10.88;6.40;;;14.40;83.10;;;;;;4951268;28;20026;-67
2022/06/14 02:46:48;;;;;;;11.60;7.43;;;14.40;83.10;;;;;;4968282;28;20026;-67
2022/06/14 02:49:13;;;;;;;11.40;7.35;;;14.30;83.60;;;;;;4952992;28;20030;-67
2022/06/14 02:51:49;;;;;;;12.77;8.30;;;14.30;84.00;;;;;;4984191;28;20061;-67
2022/06/14 02:54:29;;;;;;;12.23;7.80;;;14.20;84.70;;;;;;4983487;28;20031;-67
2022/06/14 02:57:06;;;;;;;10.65;6.65;;;14.10;84.80;;;;;;4967434;28;20026;-67
2022/06/14 03:00:14;;;;;;;10.98;7.40;;;14.10;85.50;;;;;;4967179;28;20022;-67
2022/06/14 03:02:50;;;;;;;14.00;7.57;;;14.00;85.40;;;;;;4983610;28;20069;-67
2022/06/14 03:05:49;;;;;;;13.07;7.38;;;14.00;86.50;;;;;;4951276;28;20026;-66
2022/06/14 03:08:38;;;;;;;11.15;6.72;;;14.00;86.50;;;;;;4952297;28;20026;-66
2022/06/14 03:11:28;;;;;;;14.07;7.03;;;13.90;87.00;;;;;;4952606;28;20050;-66
2022/06/14 03:14:05;;;;;;;11.57;7.07;;;13.90;86.70;;;;;;4983780;28;20033;-67
2022/06/14 03:17:17;;;;;;;12.52;6.93;;;13.90;87.20;;;;;;4967627;28;20073;-66
2022/06/14 03:20:10;;;;;;;13.52;8.18;;;13.80;87.60;;;;;;4930576;28;20046;-67
2022/06/14 03:22:43;;;;;;;11.70;6.80;;;13.80;87.70;;;;;;4939867;28;20049;-66
2022/06/14 03:25:48;;;;;;;13.82;7.07;;;13.80;88.00;;;;;;4950979;28;20033;-66
2022/06/14 03:28:15;;;;;;;10.90;7.63;;;13.70;88.40;;;;;;4966531;28;20026;-67
2022/06/14 03:30:45;;;;;;;;;;;13.70;88.70;;;;;;4966956;28;20019;-67
2022/06/14 03:33:22;;;;;;;13.15;7.18;;;13.70;89.10;;;;;;4966014;28;19928;-66
2022/06/14 03:35:50;;;;;;;10.32;6.90;;;13.60;89.10;;;;;;4983064;28;20023;-67
2022/06/14 03:38:34;;;;;;;10.85;6.97;;;13.60;89.30;;;;;;4982180;28;20041;-67
2022/06/14 03:41:01;;;;;;;13.80;7.25;;;13.60;89.70;;;;;;4952519;28;20094;-68
2022/06/14 03:43:26;;;;;;;10.10;7.13;;;13.50;89.50;;;;;;4966102;28;20049;-67
2022/06/14 03:46:16;;;;;;;9.85;7.00;;;13.50;89.10;;;;;;4983410;28;20325;-67
2022/06/14 03:48:44;;;;;;;11.20;7.38;;;13.50;89.20;;;;;;4954623;28;20018;-67
2022/06/14 03:51:28;;;;;;;10.10;6.47;;;13.40;89.10;;;;;;4966514;28;20077;-67
2022/06/14 03:54:21;;;;;;;9.85;6.68;;;13.40;89.30;;;;;;4965906;28;20023;-67
2022/06/14 03:57:15;;;;;;;13.25;7.72;;;13.40;88.40;;;;;;4966448;28;20034;-68
2022/06/14 04:00:07;;;;;;;11.35;6.50;;;13.40;88.10;;;;;;4982767;28;20030;-68
2022/06/14 04:03:21;;;;;;;12.02;6.85;;;13.40;88.10;;;;;;4952176;28;20285;-68
2022/06/14 04:06:08;;;;;;;11.50;6.95;;;13.30;87.80;;;;;;4953004;28;20058;-68
2022/06/14 04:08:50;;;;;;;11.60;7.32;;;13.30;88.20;;;;;;4966813;28;20241;-68
2022/06/14 04:11:58;;;;;;;12.15;7.75;;;13.30;88.50;;;;;;4968215;28;20082;-68
2022/06/14 04:14:50;;;;;;;12.68;7.18;;;13.30;88.70;;;;;;4965622;28;20313;-67
2022/06/14 04:17:26;;;;;;;11.95;7.60;;;13.30;88.30;;;;;;4982493;28;20031;-68
2022/06/14 04:20:17;;;;;;;10.95;6.78;;;13.30;89.70;;;;;;4984756;28;20022;-69
2022/06/14 04:22:57;;;;;;;11.23;7.18;;;13.30;90.20;;;;;;4965642;28;20031;-68
2022/06/14 04:25:48;;;;;;;12.38;6.80;;;13.40;90.00;;;;;;4982970;28;20018;-67
2022/06/14 04:28:28;;;;;;;11.10;7.22;;;13.40;90.20;;;;;;4967060;28;20043;-68
2022/06/14 04:31:31;;;;;;;12.98;7.03;;;13.40;90.60;;;;;;4971625;28;20041;-68
2022/06/14 04:34:09;;;;;;;14.00;7.53;;;13.40;90.80;;;;;;4983870;28;20026;-68
2022/06/14 04:36:54;;;;;;;13.95;7.60;;;13.40;90.60;;;;;;4965616;28;20022;-68
2022/06/14 04:39:37;;;;;;;9.88;6.63;;;13.40;90.70;;;;;;4954857;28;20089;-68
2022/06/14 04:42:19;;;;;;;11.88;6.72;;;13.40;90.80;;;;;;4951448;28;20234;-68
2022/06/14 04:44:57;;;;;;;12.93;7.05;;;13.50;91.10;;;;;;4949397;28;20351;-68
2022/06/14 04:47:41;;;;;;;10.20;7.07;;;13.60;91.00;;;;;;4948497;28;20046;-67
2022/06/14 04:50:22;;;;;;;15.68;7.32;;;13.70;90.90;;;;;;4945566;28;20093;-68
2022/06/14 04:52:58;;;;;;;10.68;7.30;;;13.90;90.10;;;;;;4954136;28;20046;-68
2022/06/14 04:55:45;;;;;;;11.00;7.03;;;14.00;90.20;;;;;;4966941;28;20090;-68
2022/06/14 04:58:31;;;;;;;11.00;6.88;;;14.00;90.30;;;;;;4955812;28;20090;-68
2022/06/14 05:00:59;;;;;;;9.63;6.68;;;14.00;90.00;;;;;;4955239;28;20048;-68
2022/06/14 05:03:54;;;;;;;11.68;7.35;;;14.10;88.80;;;;;;4936017;28;20117;-68
2022/06/14 05:06:24;;;;;;;13.90;6.90;;;14.10;88.60;;;;;;4984396;28;20038;-68
2022/06/14 05:09:03;;;;;;;10.45;7.18;;;14.10;88.60;;;;;;4952713;28;20344;-68
2022/06/14 05:11:36;;;;;;;13.70;6.18;;;14.00;88.80;;;;;;4969021;28;20302;-68
2022/06/14 05:14:13;;;;;;;9.48;5.80;;;14.00;89.70;;;;;;4969262;28;20034;-68
2022/06/14 05:17:04;;;;;;;13.40;6.87;;;14.10;89.40;;;;;;4986151;28;20038;-68
2022/06/14 05:19:52;;;;;;;9.48;5.85;;;14.10;90.30;;;;;;4968933;28;20031;-68
2022/06/14 05:22:31;;;;;;;16.30;6.65;;;14.10;90.40;;;;;;4952925;28;20031;-67
2022/06/14 05:24:58;;;;;;;12.82;6.25;;;14.10;88.20;;;;;;4985801;28;20018;-68
2022/06/14 05:27:37;;;;;;;10.70;6.13;;;14.10;88.70;;;;;;4968848;28;20034;-67
2022/06/14 05:30:22;;;;;;;11.32;6.07;;;14.10;88.00;;;;;;4968790;28;20045;-67
2022/06/14 05:33:19;;;;;;;8.23;5.97;;;14.10;87.40;;;;;;4991141;28;20031;-68
2022/06/14 05:35:53;;;;;;;8.80;6.00;;;14.20;88.20;;;;;;4984170;28;20062;-67
2022/06/14 05:38:41;;;;;;;10.43;6.30;;;14.20;88.30;;;;;;4965964;28;20455;-68
2022/06/14 05:41:17;;;;;;;15.25;7.40;;;14.20;88.60;;;;;;4971145;28;20217;-68
2022/06/14 05:44:04;;;;;;;13.90;6.80;;;14.30;89.40;;;;;;4953286;28;20015;-68
2022/06/14 05:46:41;;;;;;;11.93;6.10;;;14.30;88.50;;;;;;4968434;28;20318;-68
2022/06/14 05:49:18;;;;;;;11.38;6.18;;;14.40;88.20;;;;;;4984831;28;20424;-67
2022/06/14 05:52:08;;;;;;;9.25;5.65;;;14.40;89.20;;;;;;4985407;28;20367;-68
2022/06/14 05:54:45;;;;;;;8.48;5.40;;;14.50;88.00;;;;;;4955914;28;20202;-68
2022/06/14 05:57:25;;;;;;;8.48;4.95;;;14.50;88.40;;;;;;4967351;28;20022;-67
2022/06/14 05:59:55;;;;;;;11.82;5.80;;;14.60;89.10;;;;;;4968388;28;20066;-67
2022/06/14 06:02:37;;;;;;;9.98;5.45;;;14.70;89.70;;;;;;4985146;28;20046;-67
2022/06/14 06:05:25;;;;;;;11.90;5.50;;;14.80;88.50;;;;;;4969476;28;20031;-65
2022/06/14 06:08:07;;;;;;;9.82;5.10;;;14.80;87.80;;;;;;4985014;28;20022;-65
2022/06/14 06:10:37;;;;;;;8.57;5.47;;;14.90;88.10;;;;;;4969326;28;20085;-65
2022/06/14 06:13:32;;;;;;;9.25;5.25;;;14.90;85.30;;;;;;4951454;28;20065;-65
2022/06/14 06:16:07;;;;;;;9.32;4.57;;;15.00;86.20;;;;;;4980164;28;20051;-65
2022/06/14 06:18:45;;;;;;;11.15;4.85;;;15.10;86.60;;;;;;4984845;28;20210;-65
2022/06/14 06:21:34;;;;;;;;;;;15.10;86.40;;;;;;4952871;28;20027;-65
2022/06/14 06:24:18;;;;;;;7.32;5.03;;;15.20;87.70;;;;;;4983234;28;20137;-65
2022/06/14 06:26:51;;;;;;;11.07;5.10;;;15.30;88.40;;;;;;4967306;28;20138;-66
2022/06/14 06:29:38;;;;;;;7.07;4.63;;;15.40;84.80;;;;;;4951764;28;20026;-66
2022/06/14 06:32:04;;;;;;;9.25;5.25;;;15.50;84.20;;;;;;4984638;28;20038;-66
2022/06/14 06:34:30;;;;;;;8.17;4.80;;;15.50;83.40;;;;;;4983805;28;20046;-65
2022/06/14 06:37:25;;;;;;;8.80;4.70;;;15.60;83.90;;;;;;4976954;28;20034;-66
2022/06/14 06:40:24;;;;;;;9.20;4.75;;;15.60;85.40;;;;;;4950242;28;20031;-66
2022/06/14 06:43:05;;;;;;;7.93;4.57;;;15.70;85.80;;;;;;4957383;28;20039;-66
2022/06/14 06:45:37;;;;;;;6.85;3.75;;;15.80;85.70;;;;;;4968134;28;20027;-73
2022/06/14 06:48:14;;;;;;;7.53;3.72;;;15.80;84.10;;;;;;4951612;28;20053;-74
2022/06/14 06:50:53;;;;;;;4.97;2.97;;;15.90;80.40;;;;;;4951130;28;20286;-74
2022/06/14 06:53:23;;;;;;;8.45;3.10;;;16.00;79.30;;;;;;4952229;28;20030;-72
2022/06/14 06:56:06;;;;;;;4.35;3.10;;;16.10;78.80;;;;;;4950361;28;20026;-71
2022/06/14 06:58:56;;;;;;;5.45;2.53;;;16.10;80.20;;;;;;4966984;28;20033;-73
2022/06/14 07:01:24;;;;;;;6.07;2.97;;;16.10;78.10;;;;;;4953472;28;20023;-72
2022/06/14 07:04:15;;;;;;;6.13;2.88;;;16.30;77.10;;;;;;4951145;28;20046;-72
2022/06/14 07:07:01;;;;;;;5.50;2.50;;;16.30;77.90;;;;;;4967080;28;20085;-72
2022/06/14 07:09:42;;;;;;;5.40;2.40;;;16.40;79.80;;;;;;4965760;28;20090;-71
2022/06/14 07:12:14;;;;;;;7.00;2.85;;;16.50;76.90;;;;;;4950619;28;20050;-72
2022/06/14 07:15:02;;;;;;;7.22;3.28;;;16.60;77.00;;;;;;4951016;28;20026;-72
2022/06/14 07:17:46;;;;;;;7.43;2.33;;;16.60;77.50;;;;;;4951088;28;20138;-72
2022/06/14 07:20:40;;;;;;;4.05;2.42;;;16.70;75.10;;;;;;4983844;28;20333;-71
2022/06/14 07:23:22;;;;;;;4.57;2.28;;;16.90;73.30;;;;;;4929007;28;20094;-72
2022/06/14 07:26:18;;;;;;;4.68;2.17;;;17.00;73.00;;;;;;4963230;29;20074;-72
2022/06/14 07:28:55;;;;;;;4.13;1.48;;;17.00;73.20;;;;;;4963356;28;20058;-72
2022/06/14 07:31:57;;;;;;;7.60;2.42;;;17.00;70.40;;;;;;4965632;28;20019;-72
2022/06/14 07:34:23;;;;;;;3.97;2.08;;;17.10;71.00;;;;;;4966493;28;20045;-71
2022/06/14 07:36:49;;;;;;;5.57;1.90;;;17.20;73.40;;;;;;4965874;28;20049;-71
2022/06/14 07:39:32;;;;;;;4.03;2.40;;;17.20;68.10;;;;;;4983555;28;20034;-72
2022/06/14 07:42:19;;;;;;;5.38;2.15;;;17.40;70.00;;;;;;4968042;28;20030;-70
2022/06/14 07:45:06;;;;;;;6.60;2.47;;;17.50;68.70;;;;;;4965646;28;20209;-71
2022/06/14 07:48:09;;;;;;;6.10;2.20;;;17.50;68.20;;;;;;4947866;29;20030;-71
2022/06/14 07:50:41;;;;;;;5.35;1.77;;;17.60;69.80;;;;;;4968558;28;20011;-71
2022/06/14 07:53:34;;;;;;;5.20;2.13;;;17.60;70.70;;;;;;4983066;28;20030;-72
2022/06/14 07:56:18;;;;;;;5.47;2.40;;;17.60;71.60;;;;;;4952598;28;20037;-71
2022/06/14 07:59:19;;;;;;;6.57;2.45;;;17.70;71.10;;;;;;4951810;28;20273;-72
2022/06/14 08:01:59;;;;;;;4.63;2.50;;;17.70;71.50;;;;;;4950131;29;20046;-72
2022/06/14 08:04:38;;;;;;;4.50;2.28;;;17.70;72.30;;;;;;4965493;28;20049;-72
2022/06/14 08:07:18;;;;;;;7.07;2.50;;;17.80;68.70;;;;;;4950592;28;20073;-71
2022/06/14 08:09:58;;;;;;;5.00;2.60;;;17.80;69.40;;;;;;4951026;28;20026;-71
2022/06/14 08:12:45;;;;;;;7.65;3.08;;;17.90;69.40;;;;;;4950004;28;20066;-71
2022/06/14 08:15:27;;;;;;;19.55;3.33;;;18.00;68.90;;;;;;4982994;28;20019;-72
2022/06/14 08:18:06;;;;;;;4.35;2.38;;;18.10;67.30;;;;;;4967484;28;20333;-71
2022/06/14 08:20:54;;;;;;;7.30;1.90;;;18.10;67.40;;;;;;4964391;28;20254;-73
2022/06/14 08:23:45;;;;;;;4.95;2.47;;;18.10;65.60;;;;;;4969016;28;20027;-73
2022/06/14 08:26:18;;;;;;;3.17;2.08;;;18.10;65.20;;;;;;4938379;29;20027;-72
2022/06/14 08:29:15;;;;;;;4.85;2.40;;;18.20;66.60;;;;;;4966551;28;20027;-73
2022/06/14 08:31:49;;;;;;;8.73;2.50;;;18.20;67.20;;;;;;4980978;28;20031;-72
2022/06/14 08:34:45;;;;;;;5.07;2.17;;;18.30;66.30;;;;;;4938590;28;20488;-73
2022/06/14 08:37:21;;;;;;;3.45;2.25;;;18.40;67.10;;;;;;4986603;28;20026;-73
2022/06/14 08:39:57;;;;;;;5.65;2.42;;;18.50;66.10;;;;;;4985708;28;20027;-72
2022/06/14 08:42:32;;;;;;;4.15;2.60;;;18.60;66.50;;;;;;4984261;28;20054;-73
2022/06/14 08:45:08;;;;;;;6.57;2.47;;;18.60;64.90;;;;;;4969675;28;20027;-73
2022/06/14 08:47:40;;;;;;;2.25;1.88;;;18.70;66.20;;;;;;5002132;28;20092;-73
2022/06/14 08:50:42;;;;;;;5.32;2.53;;;18.80;67.30;;;;;;4989038;28;20026;-72
2022/06/14 08:53:17;;;;;;;5.57;2.35;;;18.80;67.80;;;;;;4978418;28;20023;-72
2022/06/14 08:56:08;;;;;;;6.20;1.98;;;18.90;63.00;;;;;;4974000;28;20102;-72
2022/06/14 08:59:10;;;;;;;7.30;2.22;;;18.90;62.30;;;;;;4974668;28;20105;-72
2022/06/14 09:01:53;;;;;;;7.40;2.45;;;18.90;63.90;;;;;;4988455;28;20324;-71
2022/06/14 09:05:03;;;;;;;3.50;1.88;;;19.00;64.90;;;;;;4989955;28;20027;-72
2022/06/14 09:08:15;;;;;;;6.32;2.47;;;19.10;59.00;;;;;;4985845;28;20034;-72
2022/06/14 09:11:16;;;;;;;6.93;1.92;;;19.10;60.20;;;;;;4986052;28;20031;-72
2022/06/14 09:14:24;;;;;;;4.82;1.77;;;19.20;62.50;;;;;;4970714;28;20050;-72
2022/06/14 09:17:12;;;;;;;3.72;1.83;;;19.30;59.10;;;;;;4973811;28;20018;-73
2022/06/14 09:20:00;;;;;;;4.63;1.77;;;19.40;57.20;;;;;;4953091;28;20233;-72
2022/06/14 09:22:54;;;;;;;7.30;2.53;;;19.60;58.60;;;;;;4985167;28;20061;-72
2022/06/14 09:25:35;;;;;;;5.45;1.77;;;19.70;58.30;;;;;;4953963;28;20086;-72
2022/06/14 09:28:12;;;;;;;3.97;1.75;;;19.70;59.00;;;;;;4969379;28;20023;-72
2022/06/14 09:31:14;;;;;;;3.13;2.00;;;19.70;55.00;;;;;;4985910;28;20059;-71
2022/06/14 09:33:55;;;;;;;7.05;2.10;;;19.70;57.60;;;;;;4984706;28;20022;-72
2022/06/14 09:36:32;;;;;;;6.43;1.73;;;19.60;54.90;;;;;;4984851;28;20329;-72
2022/06/14 09:39:31;;;;;;;3.95;1.60;;;19.60;53.00;;;;;;4985780;28;20026;-72
2022/06/14 09:42:09;;;;;;;6.03;1.80;;;19.60;55.20;;;;;;4985688;28;20031;-72
2022/06/14 09:45:30;;;;;;;3.63;1.60;;;19.60;51.40;;;;;;4985527;28;20023;-72
2022/06/14 09:48:14;;;;;;;3.92;1.83;;;19.70;53.50;;;;;;4973278;28;20023;-72
2022/06/14 09:51:16;;;;;;;4.47;1.88;;;19.70;57.10;;;;;;4984440;28;20062;-72
2022/06/14 09:54:22;;;;;;;2.80;1.48;;;19.70;54.00;;;;;;4983707;28;20317;-72
2022/06/14 09:57:31;;;;;;;9.13;1.73;;;19.80;53.60;;;;;;4972314;28;20290;-72
2022/06/14 10:00:13;;;;;;;4.75;1.45;;;19.80;48.60;;;;;;4984509;28;20146;-73
2022/06/14 10:03:18;;;;;;;2.70;1.40;;;19.90;45.90;;;;;;4953122;28;20035;-73
2022/06/14 10:06:05;;;;;;;4.28;1.60;;;19.90;48.10;;;;;;4985170;28;20022;-73
2022/06/14 10:09:09;;;;;;;4.28;1.63;;;19.90;45.80;;;;;;4956674;28;20019;-73
2022/06/14 10:12:13;;;;;;;4.28;1.70;;;19.90;46.70;;;;;;4984872;28;20053;-72
2022/06/14 10:15:18;;;;;;;4.65;1.77;;;19.90;48.00;;;;;;4967801;28;20039;-73
2022/06/14 10:18:24;;;;;;;4.78;1.60;;;20.00;48.80;;;;;;4971223;28;20190;-72
2022/06/14 10:21:15;;;;;;;4.13;1.52;;;20.20;50.00;;;;;;4968031;28;20018;-73
2022/06/14 10:23:55;;;;;;;5.47;1.52;;;20.40;49.60;;;;;;4953648;28;20031;-73
2022/06/14 10:29:50;;;;;;;3.15;1.45;;;20.30;45.10;;;;;;4970366;28;20046;-73
2022/06/14 10:32:51;;;;;;;6.38;1.52;;;20.30;46.70;;;;;;4953347;28;20381;-72
2022/06/14 10:35:21;;;;;;;2.85;1.25;;;20.10;47.00;;;;;;4962846;28;20090;-73
2022/06/14 10:37:53;;;;;;;2.38;1.10;;;20.10;46.10;;;;;;4985757;28;20030;-73
2022/06/14 10:40:52;;;;;;;2.75;1.38;;;20.00;47.00;;;;;;4985765;28;20066;-73
2022/06/14 10:43:44;;;;;;;3.08;1.60;;;20.10;49.40;;;;;;4954818;28;20035;-74
2022/06/14 10:46:26;;;;;;;5.60;1.80;;;20.40;48.40;;;;;;4982845;28;20018;-73
2022/06/14 10:49:28;;;;;;;1.83;1.40;;;20.40;47.30;;;;;;4967460;28;20046;-71
2022/06/14 10:51:59;;;;;;;3.05;1.70;;;20.50;46.70;;;;;;4970133;28;20054;-71
2022/06/14 10:54:52;;;;;;;5.00;1.60;;;20.50;48.50;;;;;;4967051;28;20045;-72
2022/06/14 10:57:36;;;;;;;3.08;2.00;;;20.60;46.40;;;;;;4984505;28;20031;-72
2022/06/14 11:00:24;;;;;;;2.33;1.45;;;20.80;46.30;;;;;;4983456;28;20034;-72
2022/06/14 11:03:19;;;;;;;3.85;1.95;;;20.90;46.50;;;;;;4983234;28;20077;-72
2022/06/14 11:06:14;;;;;;;5.03;1.55;;;21.00;46.20;;;;;;4956624;28;20046;-72
2022/06/14 11:08:56;;;;;;;5.13;1.67;;;21.10;47.70;;;;;;4967068;28;20077;-71
2022/06/14 11:11:27;;;;;;;3.03;1.80;;;21.20;48.00;;;;;;4967314;28;20030;-72
2022/06/14 11:14:02;;;;;;;5.82;1.55;;;21.30;47.10;;;;;;4950667;28;20022;-71
2022/06/14 11:17:05;;;;;;;6.57;2.05;;;21.40;46.70;;;;;;4967000;28;20077;-71
2022/06/14 11:20:02;;;;;;;5.38;1.70;;;21.40;46.30;;;;;;4967594;28;20050;-72
2022/06/14 11:22:58;;;;;;;3.70;1.70;;;21.50;45.90;;;;;;4967133;28;20074;-72
2022/06/14 11:25:43;;;;;;;6.18;1.95;;;21.60;45.20;;;;;;4966557;28;20018;-72
2022/06/14 11:28:48;;;;;;;4.50;1.52;;;21.60;48.10;;;;;;4966593;28;20034;-72
2022/06/14 11:31:41;;;;;;;2.70;1.67;;;21.70;47.40;;;;;;4969251;28;20097;-72
2022/06/14 11:34:58;;;;;;;2.90;1.50;;;21.90;47.50;;;;;;4983371;28;20027;-72
2022/06/14 11:37:47;;;;;;;3.65;1.40;;;22.10;46.10;;;;;;4939926;28;20051;-73
2022/06/14 11:40:26;;;;;;;3.38;1.50;;;22.20;46.70;;;;;;4969029;28;20276;-73
2022/06/14 11:43:10;;;;;;;2.75;1.42;;;22.20;44.30;;;;;;4982915;28;20027;-72
2022/06/14 11:45:51;;;;;;;4.07;1.60;;;22.30;45.40;;;;;;4965587;28;20019;-73
2022/06/14 11:48:46;;;;;;;6.90;1.60;;;22.40;46.00;;;;;;4982955;28;20261;-72
2022/06/14 11:51:31;;;;;;;4.18;1.92;;;22.50;45.80;;;;;;4966023;28;20038;-72
2022/06/14 11:54:19;;;;;;;4.60;1.50;;;22.60;47.70;;;;;;4969360;28;20038;-72
2022/06/14 11:57:25;;;;;;;3.60;1.40;;;22.80;46.00;;;;;;4982104;28;20138;-73
2022/06/14 12:00:06;;;;;;;4.85;1.58;;;22.90;47.70;;;;;;4951717;28;20030;-73
2022/06/14 12:03:41;;;;;;;2.83;1.45;;;23.20;47.30;;;;;;4983202;28;20027;-73
2022/06/14 12:06:36;;;;;;;3.47;1.60;;;23.30;46.10;;;;;;4940138;29;20377;-73
2022/06/14 12:09:32;;;;;;;3.97;1.30;;;23.50;42.50;;;;;;4963015;28;20027;-73
2022/06/14 12:12:40;;;;;;;4.55;1.45;;;23.50;43.30;;;;;;4962969;29;20113;-73
2022/06/14 12:15:58;;;;;;;2.03;1.33;;;23.60;42.10;;;;;;4911894;29;20311;-73
2022/06/14 12:18:24;;;;;;;5.28;1.80;;;23.70;45.50;;;;;;4949483;28;20062;-73
2022/06/14 12:21:24;;;;;;;6.57;1.98;;;23.90;44.30;;;;;;4946849;29;20229;-73
2022/06/14 12:23:58;;;;;;;2.72;1.70;;;24.10;43.40;;;;;;4946491;28;20326;-73
2022/06/14 12:26:57;;;;;;;3.63;1.60;;;24.20;43.00;;;;;;4946675;29;20042;-72
2022/06/14 12:29:35;;;;;;;8.35;2.50;;;24.40;43.10;;;;;;4962820;29;20015;-73
2022/06/14 12:32:23;;;;;;;3.67;1.40;;;24.40;40.10;;;;;;4946726;28;20027;-73
2022/06/14 12:35:00;;;;;;;3.15;1.17;;;24.50;43.70;;;;;;4979411;28;20035;-72
2022/06/14 12:37:48;;;;;;;;;;;24.60;41.30;;;;;;4951422;28;20232;-72
2022/06/14 12:40:19;;;;;;;3.45;1.42;;;24.70;42.10;;;;;;4982943;28;19913;-73
2022/06/14 12:43:20;;;;;;;4.82;1.35;;;24.90;39.80;;;;;;4982445;28;20046;-73
2022/06/14 12:45:56;;;;;;;2.45;1.45;;;24.90;40.80;;;;;;4965772;28;20015;-72
2022/06/14 12:48:36;;;;;;;2.40;1.40;;;25.20;42.80;;;;;;4965613;28;20108;-73
2022/06/14 12:51:12;;;;;;;2.25;1.40;;;25.30;41.20;;;;;;4965680;28;20019;-73
2022/06/14 12:53:49;;;;;;;2.63;1.67;;;25.60;40.00;;;;;;4965928;28;20035;-72
2022/06/14 12:56:21;;;;;;;1.35;1.10;;;25.70;41.60;;;;;;4982367;28;20030;-72
2022/06/14 12:58:56;;;;;;;5.80;1.30;;;26.00;39.10;;;;;;4949816;28;20022;-73
2022/06/14 13:02:05;;;;;;;3.08;1.42;;;26.20;39.90;;;;;;4982485;28;20034;-73
2022/06/14 13:04:36;;;;;;;7.45;1.40;;;26.50;36.90;;;;;;4982294;28;20019;-73
2022/06/14 13:07:41;;;;;;;4.80;1.33;;;26.50;34.90;;;;;;4949515;28;20093;-73
2022/06/14 13:10:19;;;;;;;1.20;0.93;;;26.50;37.00;;;;;;4971843;28;20026;-73
2022/06/14 13:13:15;;;;;;;3.95;1.25;;;26.50;40.20;;;;;;4953951;28;20027;-73
2022/06/14 13:16:09;;;;;;;2.30;1.02;;;26.60;37.90;;;;;;4986221;28;20030;-73
2022/06/14 13:18:44;;;;;;;3.03;1.40;;;26.70;37.80;;;;;;4969269;28;20324;-73
2022/06/14 13:21:53;;;;;;;2.75;1.40;;;26.90;38.80;;;;;;4986068;28;20125;-73
2022/06/14 13:25:18;;;;;;;3.40;1.33;;;27.10;37.80;;;;;;4968599;28;20030;-73
2022/06/14 13:27:56;;;;;;;2.53;1.60;;;27.50;39.70;;;;;;4977956;28;20345;-73
2022/06/14 13:30:53;;;;;;;2.55;1.40;;;27.90;38.10;;;;;;4953981;28;20065;-74
2022/06/14 13:33:46;;;;;;;3.65;1.42;;;28.30;39.00;;;;;;4968420;28;20027;-74
2022/06/14 13:36:15;;;;;;;2.17;1.10;;;28.80;37.10;;;;;;4954097;28;20023;-74
2022/06/14 13:38:50;;;;;;;3.58;1.30;;;29.10;36.90;;;;;;4985587;28;20042;-71
2022/06/14 13:41:35;;;;;;;3.70;2.25;;;29.60;36.30;;;;;;4969755;28;20038;-71
2022/06/14 13:44:16;;;;;;;3.72;1.55;;;30.00;36.00;;;;;;4953823;28;20019;-74
2022/06/14 13:46:53;;;;;;;2.08;1.27;;;30.60;39.30;;;;;;4952837;28;20018;-72
2022/06/14 13:49:30;;;;;;;5.07;1.50;;;30.70;36.20;;;;;;4969581;28;20026;-72
2022/06/14 13:51:57;;;;;;;2.80;1.38;;;31.30;34.70;;;;;;4968470;28;20018;-72
2022/06/14 13:54:36;;;;;;;2.10;1.30;;;31.90;32.80;;;;;;4968031;28;20030;-72
2022/06/14 13:57:23;;;;;;;1.88;1.25;;;32.20;30.10;;;;;;4968208;28;20050;-72
2022/06/14 13:59:50;;;;;;;3.05;1.80;;;32.10;33.40;;;;;;4985353;28;20034;-73
2022/06/14 14:02:37;;;;;;;6.18;1.60;;;32.60;32.40;;;;;;4968193;28;20049;-73
2022/06/14 14:05:16;;;;;;;2.95;1.40;;;32.90;30.70;;;;;;4968021;28;20395;-73
2022/06/14 14:08:23;;;;;;;2.42;1.55;;;33.00;32.20;;;;;;4951487;28;20027;-72
2022/06/14 14:11:32;;;;;;;8.02;1.50;;;33.30;32.70;;;;;;4968104;28;20093;-72
2022/06/14 14:14:29;;;;;;;2.42;1.23;;;33.80;31.60;;;;;;4954567;28;20027;-73
2022/06/14 14:17:04;;;;;;;2.85;1.45;;;34.10;31.10;;;;;;4985057;28;20023;-73
2022/06/14 14:20:00;;;;;;;1.30;1.00;;;33.90;30.00;;;;;;4984625;28;20058;-72